createdAt,value
2022-12-11T00:00:53.121Z,24.07
2022-12-11T00:03:20.300Z,24.08
2022-12-11T00:05:47.516Z,24.42
2022-12-11T00:08:16.011Z,24.80
2022-12-11T00:10:50.288Z,23.60
2022-12-11T00:13:17.477Z,25.97
2022-12-11T00:15:44.550Z,25.23
2022-12-11T00:18:14.707Z,25.98
2022-12-11T00:20:41.886Z,23.58
2022-12-11T00:23:09.253Z,24.02
2022-12-11T00:25:40.799Z,22.27
2022-12-11T00:28:07.898Z,23.35
2022-12-11T00:30:34.963Z,22.95
2022-12-11T00:33:02.019Z,23.48
2022-12-11T00:35:29.139Z,25.20
2022-12-11T00:37:56.255Z,23.90
2022-12-11T00:40:23.406Z,24.13
2022-12-11T00:42:50.454Z,24.27
2022-12-11T00:45:17.567Z,23.75
2022-12-11T00:47:44.620Z,23.00
2022-12-11T00:50:12.241Z,23.57
2022-12-11T00:52:40.617Z,22.70
2022-12-11T00:55:08.230Z,23.65
2022-12-11T00:57:36.000Z,24.25
2022-12-11T01:00:06.987Z,24.90
2022-12-11T01:02:35.203Z,22.57
2022-12-11T01:05:02.336Z,24.80
2022-12-11T01:07:29.458Z,26.48
2022-12-11T01:10:15.167Z,24.38
2022-12-11T01:12:42.265Z,24.52
2022-12-11T01:15:10.092Z,24.60
2022-12-11T01:17:37.483Z,25.17
2022-12-11T01:20:05.924Z,25.85
2022-12-11T01:22:33.023Z,25.30
2022-12-11T01:25:00.143Z,23.85
2022-12-11T01:27:27.311Z,26.83
2022-12-11T01:29:54.379Z,25.52
2022-12-11T01:32:21.674Z,26.23
2022-12-11T01:34:48.875Z,26.40
2022-12-11T01:37:16.260Z,26.13
2022-12-11T01:39:43.326Z,26.90
2022-12-11T01:42:18.306Z,26.88
2022-12-11T01:44:45.275Z,27.10
2022-12-11T01:47:12.448Z,28.05
2022-12-11T01:49:41.959Z,26.05
2022-12-11T01:52:16.514Z,26.33
2022-12-11T01:54:44.177Z,27.25
2022-12-11T01:57:14.176Z,29.27
2022-12-11T01:59:45.413Z,29.55
2022-12-11T02:02:30.869Z,26.42
2022-12-11T02:04:58.004Z,26.67
2022-12-11T02:07:25.203Z,25.50
2022-12-11T02:09:52.296Z,26.63
2022-12-11T02:12:32.001Z,26.38
2022-12-11T02:15:17.683Z,24.77
2022-12-11T02:18:08.618Z,26.03
2022-12-11T02:20:51.444Z,25.63
2022-12-11T02:23:39.065Z,27.33
2022-12-11T02:26:21.131Z,24.58
2022-12-11T02:29:01.079Z,25.38
2022-12-11T02:31:43.479Z,26.17
2022-12-11T02:34:43.535Z,26.08
2022-12-11T02:37:18.764Z,25.35
2022-12-11T02:39:47.637Z,24.92
2022-12-11T02:42:18.700Z,25.95
2022-12-11T02:44:49.194Z,26.53
2022-12-11T02:47:19.173Z,26.88
2022-12-11T02:49:50.517Z,24.02
2022-12-11T02:52:22.777Z,24.55
2022-12-11T02:54:53.607Z,24.05
2022-12-11T02:57:39.955Z,24.77
2022-12-11T03:00:09.405Z,22.98
2022-12-11T03:02:38.311Z,23.15
2022-12-11T03:05:06.077Z,23.67
2022-12-11T03:07:37.122Z,23.92
2022-12-11T03:10:08.111Z,24.90
2022-12-11T03:12:40.243Z,23.48
2022-12-11T03:15:13.950Z,23.77
2022-12-11T03:18:26.299Z,23.60
2022-12-11T03:21:27.215Z,23.45
2022-12-11T03:24:15.717Z,24.23
2022-12-11T03:26:56.006Z,24.00
2022-12-11T03:29:35.623Z,22.75
2022-12-11T03:32:30.257Z,23.67
2022-12-11T03:35:13.973Z,22.65
2022-12-11T03:37:42.828Z,22.30
2022-12-11T03:40:18.112Z,23.38
2022-12-11T03:42:50.899Z,22.23
2022-12-11T03:45:21.139Z,21.42
2022-12-11T03:47:49.494Z,23.05
2022-12-11T03:50:19.554Z,23.77
2022-12-11T03:52:48.250Z,24.02
2022-12-11T03:55:17.792Z,23.25
2022-12-11T03:57:45.326Z,22.90
2022-12-11T04:00:17.847Z,22.65
2022-12-11T04:03:09.677Z,20.87
2022-12-11T04:05:46.167Z,21.58
2022-12-11T04:08:14.086Z,21.70
2022-12-11T04:10:41.951Z,23.65
2022-12-11T04:13:10.004Z,21.67
2022-12-11T04:15:38.169Z,21.70
2022-12-11T04:18:35.538Z,21.63
2022-12-11T04:21:21.331Z,21.98
2022-12-11T04:24:06.920Z,21.30
2022-12-11T04:26:33.995Z,21.58
2022-12-11T04:29:01.111Z,21.60
2022-12-11T04:31:29.821Z,22.00
2022-12-11T04:33:57.000Z,19.95
2022-12-11T04:36:24.611Z,20.83
2022-12-11T04:38:51.739Z,20.30
2022-12-11T04:41:19.070Z,20.43
2022-12-11T04:43:46.319Z,20.00
2022-12-11T04:46:20.757Z,19.70
2022-12-11T04:48:53.799Z,19.70
2022-12-11T04:51:22.884Z,19.08
2022-12-11T04:53:50.004Z,19.13
2022-12-11T04:56:17.276Z,21.08
2022-12-11T04:58:45.524Z,19.08
2022-12-11T05:01:16.501Z,18.25
2022-12-11T05:03:43.811Z,17.58
2022-12-11T05:06:11.822Z,18.57
2022-12-11T05:08:41.253Z,18.90
2022-12-11T05:11:12.299Z,17.70
2022-12-11T05:13:39.615Z,17.45
2022-12-11T05:16:10.705Z,17.35
2022-12-11T05:18:37.883Z,16.43
2022-12-11T05:21:09.969Z,16.98
2022-12-11T05:23:37.701Z,17.02
2022-12-11T05:26:18.263Z,16.85
2022-12-11T05:28:46.802Z,17.17
2022-12-11T05:31:17.681Z,17.03
2022-12-11T05:33:46.229Z,16.27
2022-12-11T05:36:23.438Z,18.13
2022-12-11T05:38:51.782Z,16.65
2022-12-11T05:41:21.743Z,17.00
2022-12-11T05:43:49.187Z,17.50
2022-12-11T05:46:23.095Z,16.38
2022-12-11T05:48:54.265Z,17.63
2022-12-11T05:51:21.636Z,15.80
2022-12-11T05:53:51.716Z,16.45
2022-12-11T05:56:28.793Z,16.67
2022-12-11T05:58:57.014Z,16.50
2022-12-11T06:01:29.439Z,16.67
2022-12-11T06:03:57.863Z,16.35
2022-12-11T06:06:26.615Z,16.27
2022-12-11T06:08:55.850Z,14.43
2022-12-11T06:11:24.526Z,15.57
2022-12-11T06:13:52.613Z,15.85
2022-12-11T06:16:20.480Z,15.60
2022-12-11T06:18:48.366Z,15.80
2022-12-11T06:21:29.832Z,15.67
2022-12-11T06:23:59.510Z,14.95
2022-12-11T06:26:27.196Z,15.32
2022-12-11T06:28:54.570Z,16.77
2022-12-11T06:31:22.075Z,19.33
2022-12-11T06:33:49.461Z,17.50
2022-12-11T06:36:23.872Z,20.58
2022-12-11T06:38:51.887Z,17.90
2022-12-11T06:41:19.284Z,19.63
2022-12-11T06:43:46.535Z,18.98
2022-12-11T06:46:19.668Z,21.47
2022-12-11T06:48:48.149Z,18.67
2022-12-11T06:51:19.006Z,17.98
2022-12-11T06:53:54.607Z,19.83
2022-12-11T06:56:22.623Z,18.58
2022-12-11T06:58:49.979Z,18.50
2022-12-11T07:01:28.486Z,18.17
2022-12-11T07:04:00.114Z,18.20
2022-12-11T07:06:28.867Z,19.33
2022-12-11T07:08:56.842Z,21.70
2022-12-11T07:11:24.304Z,19.50
2022-12-11T07:13:51.728Z,18.98
2022-12-11T07:16:19.589Z,19.48
2022-12-11T07:18:52.203Z,17.73
2022-12-11T07:21:21.038Z,18.52
2022-12-11T07:23:49.455Z,18.47
2022-12-11T07:26:20.279Z,18.63
2022-12-11T07:28:47.706Z,19.73
2022-12-11T07:31:23.196Z,21.08
2022-12-11T07:34:05.022Z,19.98
2022-12-11T07:36:33.247Z,18.27
2022-12-11T07:39:01.562Z,19.50
2022-12-11T07:41:28.860Z,20.02
2022-12-11T07:43:56.894Z,18.92
2022-12-11T07:46:27.446Z,18.45
2022-12-11T07:48:54.980Z,17.37
2022-12-11T07:51:32.068Z,18.17
2022-12-11T07:54:02.934Z,18.05
2022-12-11T07:56:31.280Z,18.30
2022-12-11T07:59:04.155Z,19.15
2022-12-11T08:01:35.517Z,17.50
2022-12-11T08:04:05.140Z,17.88
2022-12-11T08:06:36.019Z,19.27
2022-12-11T08:09:07.661Z,18.55
2022-12-11T08:11:35.651Z,17.98
2022-12-11T08:14:03.512Z,17.67
2022-12-11T08:16:30.750Z,18.20
2022-12-11T08:18:58.596Z,19.50
2022-12-11T08:21:27.700Z,18.15
2022-12-11T08:23:55.465Z,19.50
2022-12-11T08:26:27.408Z,18.33
2022-12-11T08:28:55.339Z,19.20
2022-12-11T08:31:23.155Z,20.13
2022-12-11T08:33:51.285Z,19.77
2022-12-11T08:36:21.270Z,19.75
2022-12-11T08:38:50.664Z,18.97
2022-12-11T08:41:27.980Z,19.17
2022-12-11T08:43:57.430Z,19.25
2022-12-11T08:46:28.401Z,19.25
2022-12-11T08:48:56.710Z,18.83
2022-12-11T08:51:26.889Z,17.73
2022-12-11T08:53:59.677Z,17.38
2022-12-11T08:56:29.146Z,16.33
2022-12-11T08:58:56.318Z,15.82
2022-12-11T09:01:26.342Z,16.50
2022-12-11T09:03:55.567Z,14.87
2022-12-11T09:06:26.329Z,15.20
2022-12-11T09:08:55.942Z,16.05
2022-12-11T09:11:27.301Z,15.23
2022-12-11T09:13:54.963Z,18.10
2022-12-11T09:16:25.143Z,18.23
2022-12-11T09:18:54.979Z,20.20
2022-12-11T09:21:25.887Z,18.58
2022-12-11T09:23:55.630Z,18.08
2022-12-11T09:26:23.509Z,17.75
2022-12-11T09:28:53.734Z,20.47
2022-12-11T09:31:24.929Z,18.15
2022-12-11T09:33:56.664Z,18.92
2022-12-11T09:36:24.739Z,23.40
2022-12-11T09:38:52.029Z,26.63
2022-12-11T09:41:21.825Z,23.90
2022-12-11T09:44:15.895Z,21.70
2022-12-11T09:46:43.973Z,22.42
2022-12-11T09:49:34.369Z,18.90
2022-12-11T09:52:22.746Z,19.33
2022-12-11T09:55:24.121Z,19.63
2022-12-11T09:58:06.930Z,18.35
2022-12-11T10:00:54.799Z,18.75
2022-12-11T10:04:06.260Z,24.45
2022-12-11T10:06:43.560Z,17.30
2022-12-11T10:09:47.274Z,19.80
2022-12-11T10:12:42.343Z,25.67
2022-12-11T10:16:01.904Z,23.33
2022-12-11T10:18:31.931Z,21.05
2022-12-11T10:21:02.785Z,16.30
2022-12-11T10:23:41.228Z,17.87
2022-12-11T10:26:13.173Z,18.33
2022-12-11T10:28:40.407Z,21.55
2022-12-11T10:31:19.515Z,24.90
2022-12-11T10:34:19.131Z,19.85
2022-12-11T10:36:46.231Z,16.00
2022-12-11T10:39:17.194Z,24.70
2022-12-11T10:41:50.903Z,19.45
2022-12-11T10:44:31.959Z,23.95
2022-12-11T10:47:10.350Z,15.40
2022-12-11T10:49:42.515Z,16.80
2022-12-11T10:52:24.752Z,20.60
2022-12-11T10:55:06.454Z,17.00
2022-12-11T10:57:39.179Z,16.02
2022-12-11T11:00:34.066Z,15.80
2022-12-11T11:03:04.021Z,16.40
2022-12-11T11:05:35.224Z,15.82
2022-12-11T11:08:22.481Z,16.77
2022-12-11T11:10:58.154Z,15.82
2022-12-11T11:13:28.731Z,14.35
2022-12-11T11:16:05.523Z,15.90
2022-12-11T11:18:33.754Z,14.55
2022-12-11T11:21:01.471Z,13.85
2022-12-11T11:23:29.526Z,14.70
2022-12-11T11:26:07.855Z,15.10
2022-12-11T11:28:39.502Z,16.27
2022-12-11T11:31:13.683Z,13.75
2022-12-11T11:34:22.065Z,15.40
2022-12-11T11:37:05.417Z,16.80
2022-12-11T11:39:40.651Z,15.15
2022-12-11T11:42:13.277Z,15.83
2022-12-11T11:45:12.051Z,16.50
2022-12-11T11:48:03.131Z,16.55
2022-12-11T11:50:36.621Z,13.95
2022-12-11T11:53:18.053Z,14.60
2022-12-11T11:56:10.860Z,14.07
2022-12-11T11:58:49.644Z,13.48
2022-12-11T12:01:19.977Z,13.32
2022-12-11T12:03:48.877Z,13.25
2022-12-11T12:06:46.018Z,12.50
2022-12-11T12:09:34.041Z,14.37
2022-12-11T12:12:31.026Z,13.80
2022-12-11T12:15:41.507Z,13.95
2022-12-11T12:19:11.731Z,13.25
2022-12-11T12:21:39.228Z,12.98
2022-12-11T12:24:26.646Z,13.20
2022-12-11T12:27:02.252Z,14.05
2022-12-11T12:30:15.011Z,14.15
2022-12-11T12:33:03.157Z,12.63
2022-12-11T12:35:44.871Z,14.82
2022-12-11T12:38:23.621Z,13.87
2022-12-11T12:41:19.723Z,13.00
2022-12-11T12:44:05.670Z,13.18
2022-12-11T12:47:08.867Z,14.15
2022-12-11T12:49:51.539Z,13.35
2022-12-11T12:52:35.432Z,13.03
2022-12-11T12:55:23.670Z,14.35
2022-12-11T12:58:01.675Z,15.13
2022-12-11T13:00:42.368Z,21.17
2022-12-11T13:03:20.210Z,18.77
2022-12-11T13:06:09.050Z,16.17
2022-12-11T13:08:47.433Z,14.40
2022-12-11T13:11:18.274Z,15.60
2022-12-11T13:14:07.267Z,14.85
2022-12-11T13:16:44.481Z,15.68
2022-12-11T13:19:23.442Z,15.43
2022-12-11T13:22:03.421Z,14.13
2022-12-11T13:24:33.785Z,14.98
2022-12-11T13:27:41.640Z,14.57
2022-12-11T13:30:14.795Z,21.67
2022-12-11T13:32:49.988Z,18.33
2022-12-11T13:35:18.730Z,19.95
2022-12-11T13:37:49.620Z,20.33
2022-12-11T13:40:24.812Z,21.63
2022-12-11T13:43:08.497Z,14.98
2022-12-11T13:45:52.552Z,17.27
2022-12-11T13:48:28.847Z,16.58
2022-12-11T13:50:58.229Z,17.30
2022-12-11T13:53:25.383Z,16.55
2022-12-11T13:56:06.238Z,19.70
2022-12-11T13:58:39.854Z,18.20
2022-12-11T14:01:41.436Z,17.42
2022-12-11T14:04:14.471Z,17.10
2022-12-11T14:06:41.813Z,16.10
2022-12-11T14:09:09.734Z,23.33
2022-12-11T14:11:41.080Z,20.50
2022-12-11T14:14:56.809Z,16.27
2022-12-11T14:17:31.690Z,17.58
2022-12-11T14:20:03.437Z,23.20
2022-12-11T14:22:31.000Z,17.08
2022-12-11T14:25:03.596Z,20.83
2022-12-11T14:27:31.335Z,18.00
2022-12-11T14:29:58.463Z,18.35
2022-12-11T14:32:32.493Z,17.10
2022-12-11T14:35:04.425Z,20.05
2022-12-11T14:37:32.479Z,18.77
2022-12-11T14:40:14.603Z,19.50
2022-12-11T14:42:48.204Z,18.42
2022-12-11T14:45:31.133Z,19.23
2022-12-11T14:48:00.008Z,17.67
2022-12-11T14:50:38.368Z,17.80
2022-12-11T14:53:16.130Z,18.42
2022-12-11T14:55:43.451Z,18.88
2022-12-11T14:58:22.720Z,18.63
2022-12-11T15:01:06.928Z,26.55
2022-12-11T15:03:39.748Z,19.83
2022-12-11T15:06:35.776Z,26.33
2022-12-11T15:09:28.789Z,26.88
2022-12-11T15:11:59.622Z,27.42
2022-12-11T15:14:27.307Z,22.80
2022-12-11T15:16:57.741Z,18.90
2022-12-11T15:19:35.185Z,18.45
2022-12-11T15:22:06.991Z,19.52
2022-12-11T15:24:41.868Z,18.83
2022-12-11T15:27:32.444Z,18.30
2022-12-11T15:29:59.940Z,19.80
2022-12-11T15:32:27.375Z,17.83
2022-12-11T15:35:00.170Z,18.35
2022-12-11T15:37:31.528Z,18.67
2022-12-11T15:40:01.565Z,19.65
2022-12-11T15:42:36.975Z,21.23
2022-12-11T15:45:07.797Z,21.15
2022-12-11T15:47:34.903Z,20.85
2022-12-11T15:50:16.401Z,20.33
2022-12-11T15:52:44.158Z,19.48
2022-12-11T15:55:12.095Z,21.43
2022-12-11T15:57:47.927Z,20.33
2022-12-11T16:00:18.653Z,18.45
2022-12-11T16:02:47.290Z,17.35
2022-12-11T16:05:15.082Z,18.58
2022-12-11T16:07:43.037Z,20.20
2022-12-11T16:10:16.014Z,19.83
2022-12-11T16:12:43.348Z,20.63
2022-12-11T16:15:14.364Z,20.23
2022-12-11T16:17:43.504Z,23.77
2022-12-11T16:20:13.375Z,21.60
2022-12-11T16:22:40.815Z,19.02
2022-12-11T16:25:08.145Z,19.77
2022-12-11T16:27:35.249Z,20.05
2022-12-11T16:30:02.398Z,18.83
2022-12-11T16:32:29.499Z,17.43
2022-12-11T16:35:00.999Z,17.58
2022-12-11T16:37:28.804Z,16.83
2022-12-11T16:39:56.109Z,16.75
2022-12-11T16:42:23.198Z,17.65
2022-12-11T16:44:50.244Z,17.90
2022-12-11T16:47:17.363Z,18.90
2022-12-11T16:49:44.461Z,25.58
2022-12-11T16:52:11.599Z,21.20
2022-12-11T16:54:38.795Z,19.10
2022-12-11T16:57:05.839Z,16.70
2022-12-11T16:59:37.240Z,16.58
2022-12-11T17:02:05.235Z,17.73
2022-12-11T17:04:32.604Z,17.75
2022-12-11T17:06:59.661Z,16.48
2022-12-11T17:09:26.717Z,22.57
2022-12-11T17:11:53.854Z,28.75
2022-12-11T17:14:20.983Z,40.58
2022-12-11T17:16:48.301Z,17.30
2022-12-11T17:19:16.645Z,16.52
2022-12-11T17:21:49.913Z,19.40
2022-12-11T17:24:18.484Z,17.23
2022-12-11T17:26:45.669Z,20.65
2022-12-11T17:29:13.644Z,27.33
2022-12-11T17:31:40.946Z,28.13
2022-12-11T17:34:08.103Z,24.37
2022-12-11T17:36:35.415Z,18.63
2022-12-11T17:39:04.153Z,18.00
2022-12-11T17:41:31.275Z,17.13
2022-12-11T17:43:58.423Z,15.70
2022-12-11T17:46:25.650Z,18.17
2022-12-11T17:48:52.798Z,15.60
2022-12-11T17:51:23.688Z,15.27
2022-12-11T17:53:53.023Z,14.98
2022-12-11T17:56:20.190Z,14.18
2022-12-11T17:58:47.398Z,15.07
2022-12-11T18:01:14.735Z,14.32
2022-12-11T18:03:42.270Z,15.88
2022-12-11T18:06:14.485Z,16.38
2022-12-11T18:08:42.656Z,16.70
2022-12-11T18:11:18.430Z,15.50
2022-12-11T18:13:47.276Z,17.35
2022-12-11T18:16:20.346Z,18.80
2022-12-11T18:18:48.759Z,15.93
2022-12-11T18:21:19.836Z,26.48
2022-12-11T18:23:47.695Z,20.23
2022-12-11T18:26:14.818Z,19.58
2022-12-11T18:28:43.455Z,16.38
2022-12-11T18:31:11.076Z,16.23
2022-12-11T18:33:39.787Z,16.58
2022-12-11T18:36:07.896Z,21.83
2022-12-11T18:38:35.167Z,17.17
2022-12-11T18:41:09.036Z,17.30
2022-12-11T18:43:36.859Z,22.15
2022-12-11T18:46:10.256Z,17.20
2022-12-11T18:48:37.957Z,17.30
2022-12-11T18:51:12.368Z,17.02
2022-12-11T18:53:40.284Z,18.80
2022-12-11T18:56:14.300Z,15.73
2022-12-11T18:58:41.783Z,15.95
2022-12-11T19:01:12.079Z,14.97
2022-12-11T19:03:39.520Z,14.40
2022-12-11T19:06:13.172Z,15.38
2022-12-11T19:08:41.020Z,14.80
2022-12-11T19:11:09.019Z,15.10
2022-12-11T19:13:36.342Z,16.70
2022-12-11T19:16:03.704Z,16.67
2022-12-11T19:18:30.871Z,20.98
2022-12-11T19:21:06.718Z,17.45
2022-12-11T19:23:36.085Z,15.35
2022-12-11T19:26:03.733Z,14.00
2022-12-11T19:28:33.788Z,13.45
2022-12-11T19:31:00.901Z,13.30
2022-12-11T19:33:28.038Z,14.73
2022-12-11T19:36:07.712Z,14.35
2022-12-11T19:38:34.804Z,15.70
2022-12-11T19:41:06.909Z,14.68
2022-12-11T19:43:35.948Z,14.30
2022-12-11T19:46:08.767Z,14.57
2022-12-11T19:48:41.329Z,14.02
2022-12-11T19:51:18.146Z,14.33
2022-12-11T19:53:47.809Z,15.07
2022-12-11T19:56:16.316Z,14.43
2022-12-11T19:58:43.934Z,14.50
2022-12-11T20:01:24.755Z,16.67
2022-12-11T20:03:53.542Z,15.23
2022-12-11T20:06:21.288Z,16.50
2022-12-11T20:08:49.262Z,17.00
2022-12-11T20:11:18.911Z,19.73
2022-12-11T20:13:50.898Z,19.27
2022-12-11T20:16:33.372Z,12.90
2022-12-11T20:19:08.224Z,13.40
2022-12-11T20:21:35.308Z,14.55
2022-12-11T20:24:02.363Z,14.10
2022-12-11T20:26:31.774Z,14.63
2022-12-11T20:28:58.826Z,15.43
2022-12-11T20:31:26.839Z,14.80
2022-12-11T20:33:56.388Z,18.60
2022-12-11T20:36:25.202Z,29.25
2022-12-11T20:38:53.245Z,20.40
2022-12-11T20:41:23.720Z,17.23
2022-12-11T20:43:53.871Z,14.60
2022-12-11T20:46:25.036Z,13.60
2022-12-11T20:48:54.144Z,13.88
2022-12-11T20:51:26.251Z,13.95
2022-12-11T20:53:58.924Z,15.97
2022-12-11T20:56:30.173Z,14.77
2022-12-11T20:58:58.858Z,15.88
2022-12-11T21:01:28.860Z,14.05
2022-12-11T21:03:56.303Z,15.10
2022-12-11T21:06:31.027Z,17.20
2022-12-11T21:09:01.000Z,18.55
2022-12-11T21:11:28.243Z,14.70
2022-12-11T21:13:55.456Z,15.88
2022-12-11T21:16:22.829Z,14.65
2022-12-11T21:18:50.051Z,14.07
2022-12-11T21:21:17.664Z,13.57
2022-12-11T21:23:45.216Z,13.80
2022-12-11T21:26:13.174Z,13.90
2022-12-11T21:28:40.424Z,13.52
2022-12-11T21:31:12.068Z,13.60
2022-12-11T21:33:39.382Z,13.57
2022-12-11T21:36:10.883Z,14.30
2022-12-11T21:38:39.224Z,13.95
2022-12-11T21:41:15.744Z,12.65
2022-12-11T21:44:32.933Z,14.10
2022-12-11T21:46:32.005Z,13.30
2022-12-11T21:48:59.958Z,14.43
2022-12-11T21:51:36.895Z,13.77
2022-12-11T21:54:07.204Z,14.20
2022-12-11T21:56:34.634Z,14.07
2022-12-11T21:59:01.860Z,13.80
2022-12-11T22:01:34.984Z,15.13
2022-12-11T22:04:02.861Z,14.93
2022-12-11T22:06:29.992Z,16.20
2022-12-11T22:08:57.053Z,15.03
2022-12-11T22:11:29.356Z,15.73
2022-12-11T22:13:57.025Z,15.20
2022-12-11T22:16:24.700Z,14.52
2022-12-11T22:18:53.005Z,14.63
2022-12-11T22:21:20.906Z,15.73
2022-12-11T22:23:48.370Z,13.82
2022-12-11T22:26:23.176Z,14.57
2022-12-11T22:28:50.570Z,14.27
2022-12-11T22:31:21.623Z,14.65
2022-12-11T22:33:50.258Z,13.47
2022-12-11T22:36:18.903Z,14.25
2022-12-11T22:38:46.513Z,14.38
2022-12-11T22:41:22.406Z,13.90
2022-12-11T22:43:50.030Z,14.43
2022-12-11T22:46:20.169Z,14.10
2022-12-11T22:48:47.345Z,13.25
2022-12-11T22:51:14.886Z,14.48
2022-12-11T22:53:42.005Z,13.52
2022-12-11T22:56:11.614Z,13.48
2022-12-11T22:58:39.345Z,13.57
2022-12-11T23:01:16.983Z,13.90
2022-12-11T23:03:44.219Z,13.75
2022-12-11T23:06:15.835Z,13.95
2022-12-11T23:08:43.785Z,14.25
2022-12-11T23:11:11.930Z,13.53
2022-12-11T23:13:40.245Z,14.55
2022-12-11T23:16:09.149Z,14.38
2022-12-11T23:18:36.455Z,14.10
2022-12-11T23:21:04.167Z,14.27
2022-12-11T23:23:31.306Z,14.83
2022-12-11T23:25:59.143Z,14.05
2022-12-11T23:28:26.247Z,15.07
2022-12-11T23:30:53.411Z,12.95
2022-12-11T23:33:20.520Z,14.52
2022-12-11T23:35:47.595Z,15.67
2022-12-11T23:38:16.005Z,15.43
2022-12-11T23:40:43.094Z,15.45
2022-12-11T23:43:10.215Z,14.90
2022-12-11T23:45:37.424Z,14.80
2022-12-11T23:48:04.591Z,14.10
2022-12-11T23:50:32.816Z,14.63
2022-12-11T23:53:00.386Z,13.98
2022-12-11T23:55:27.670Z,14.50
2022-12-11T23:57:54.848Z,15.13
